Flight EZE38X

  • Submitted By: Dave Hardy
  • Departure Airport: Bristol / Lulsgate (EGGD)
  • Arrival Airport: Aberdeen / Dyce (EGPD)
  • Aircraft: SB20 (G-CDEA)
  • Flight Time: 1.22
  • Date Submitted: 05/21/2009
  • Status: Accepted
Flight Details
Gross Revenue:
(39 load / £ 0.00 per unit
£ 0.00
Fuel Cost:
(3236 fuel used @ 0 / unit)
£ 0.00

Flight Details

  • VATAWARE Link: -

Additional Log Information:

View Log

[2009/05/21 17:46:00]
Flight IATA:EZE38X
Pilot Number:EZE0001
Company ICAO:EZE
Aircraft Type:SB20
PAX:39
Aircraft Registration:SB20
Departing Airport: EGGD
Destination Airport: EGPD
Online: VATSIM
Route:EGGD..BCN.N864.NITON.Y98.POL.P18.BALID..EGPD/0130
Flight Level:23000
17:46 Zero fuel Weight: 39783 Lbs, Fuel Weight: 10266 Lbs
17:46 VATSIM:EGGD 211920Z 26010KT 9999 FEW020 10/07 Q1015
17:46 VATSIM:EGPD 211920Z 20004KT 170V230 8000 -RA SCT032 BKN046 09/08 Q1008 RERA TEMPO RA
17:56 Parking Brakes off
17:56 Com1 Freq=133.85
18:04 VR= 185 Knots
18:04 V2= 190 Knots
18:04 Take-off
18:04 Take off Weight: 49827 Lbs
18:04 Wind: 265 @ 011 Knots Heading: 265
18:04 POS N51 22 56 W002 43 36
18:04 N11 142 N12 142
18:04 Gear Up: 193 Knots
18:04 Flaps: at 193 Knots
18:05 Com1 Freq=132.85
18:05 Com1 Freq=129.85
18:05 Com1 Freq=127.85
18:05 Com1 Freq=126.85
18:05 Com1 Freq=125.85
18:06 Com1 Freq=125.95
18:06 Com1 Freq=125.62
18:06 Com1 Freq=125.65
18:08 Com1 Freq=125.77
18:08 Com1 Freq=125.85
18:09 Com1 Freq=121.85
18:09 Com1 Freq=122.85
18:09 Com1 Freq=122.77
18:09 Com1 Freq=122.80
18:10 Flaps:Up at 208 Knots
18:14 Com1 Freq=126.80
18:14 Com1 Freq=134.80
18:14 Com1 Freq=135.80
18:14 Com1 Freq=135.90
18:14 Com1 Freq=135.57
18:14 Com1 Freq=135.55
18:14 Com1 Freq=135.52
18:14 Com1 Freq=118.00
18:15 Com1 Freq=122.00
18:15 Com1 Freq=122.92
18:15 Com1 Freq=122.82
18:15 Com1 Freq=122.80
18:19 Wind:280@028 Knots Heading: 359 Ground Speed: 354 Knots Altitude 22001 ft
18:34 Wind:257@020 Knots Heading: 028 Ground Speed: 374 Knots Altitude 21981 ft
18:46 TOC
18:46 Fuel Weight: 8035 Lb
18:49 Wind:244@016 Knots Heading: 009 Ground Speed: 371 Knots Altitude 22903 ft
18:58 TOD
18:58 Fuel Weight: 7516 Lb
19:04 Wind:263@015 Knots Heading: 309 Ground Speed: 271 Knots Altitude 12532 ft
19:08 Flaps: at 260 Knots
19:13 Flaps: at 206 Knots
19:13 Gear Down: 199 Knots
19:14 Flaps: at 202 Knots
19:15 Flaps: at 162 Knots
19:16 TouchDown:Rate -205 ft/min Speed: 133 Knots
19:16 VATSIM:EGPD 212050Z 26007KT CAVOK 08/07 Q1008 NOSIG
19:16 Land
19:16 Wind:267@005 Knots
19:16 Heading: 333
19:16 Flight Duration: 01:12
19:16 Landing Weight: 46862 Lbs
19:16 POS N57 12 14 W002 11 58
19:18 Parking brakes on
19:18 Block to Block Duration: 01:22
19:18 Final Fuel: 7030 Lbls
19:18 Spent Fuel: 3236 Lbls
19:18 Flight Length: 385 NM
19:18 TOD Land Length: 74 NM

Route Map